Time;durP1;ratioP1;P1;durP2;ratioP2;P2;SDS_P1;SDS_P2;PMS_P1;PMS_P2;Temp;Humidity;BMP_temperature;BMP_pressure;BME280_temperature;BME280_humidity;BME280_pressure;Samples;Min_cycle;Max_cycle;Signal;HPM_P1;HPM_P2
2021/08/08 00:01:26;;;;;;;3.95;1.83;;;15.70;97.80;;;;;;4979592;28;20026;-86
2021/08/08 00:03:54;;;;;;;3.90;2.00;;;15.90;97.80;;;;;;4980580;28;20029;-86
2021/08/08 00:06:22;;;;;;;6.30;2.22;;;15.70;97.90;;;;;;4996602;28;20029;-86
2021/08/08 00:08:51;;;;;;;4.03;1.85;;;15.80;97.90;;;;;;4980599;28;20029;-87
2021/08/08 00:11:18;;;;;;;3.30;2.00;;;15.90;98.00;;;;;;4980757;28;20026;-87
2021/08/08 00:13:47;;;;;;;5.63;2.10;;;15.70;97.70;;;;;;4980212;28;20026;-87
2021/08/08 00:16:16;;;;;;;5.55;2.20;;;15.70;97.50;;;;;;4964351;28;20096;-87
2021/08/08 00:18:45;;;;;;;4.47;2.15;;;15.90;97.40;;;;;;4964867;28;20037;-86
2021/08/08 00:21:19;;;;;;;4.03;2.03;;;15.70;97.30;;;;;;4980513;28;20036;-87
2021/08/08 00:23:48;;;;;;;7.30;3.03;;;15.60;96.80;;;;;;4980452;28;20023;-87
2021/08/08 00:26:14;;;;;;;3.83;1.98;;;15.80;97.20;;;;;;4964171;28;20042;-86
2021/08/08 00:28:40;;;;;;;5.78;2.30;;;15.60;97.20;;;;;;4976410;28;20051;-85
2021/08/08 00:31:06;;;;;;;5.20;2.40;;;15.70;97.20;;;;;;4976954;28;20097;-85
2021/08/08 00:33:32;;;;;;;8.23;3.00;;;15.70;97.20;;;;;;4976963;28;20058;-85
2021/08/08 00:35:58;;;;;;;6.75;2.50;;;15.60;97.20;;;;;;4968862;28;20428;-85
2021/08/08 00:38:24;;;;;;;6.60;2.30;;;15.60;97.20;;;;;;4957301;29;20027;-85
2021/08/08 00:40:49;;;;;;;4.63;2.08;;;15.60;97.30;;;;;;4957544;29;20031;-85
2021/08/08 00:43:17;;;;;;;5.45;2.40;;;15.50;97.30;;;;;;4957701;29;20051;-85
2021/08/08 00:45:47;;;;;;;5.10;2.22;;;15.50;97.60;;;;;;4958359;29;20106;-83
2021/08/08 00:48:15;;;;;;;6.47;3.35;;;15.20;97.70;;;;;;4958893;29;20031;-84
2021/08/08 00:50:41;;;;;;;5.75;2.53;;;15.40;98.10;;;;;;4957857;29;20082;-85
2021/08/08 00:53:07;;;;;;;6.40;2.55;;;15.30;98.10;;;;;;4957645;29;20490;-85
2021/08/08 00:55:33;;;;;;;8.00;2.53;;;15.10;98.20;;;;;;4957118;29;20043;-86
2021/08/08 00:57:59;;;;;;;5.55;2.20;;;15.10;98.80;;;;;;4957021;28;20089;-85
2021/08/08 01:00:24;;;;;;;6.22;2.50;;;15.30;98.70;;;;;;4958451;28;20031;-85
2021/08/08 01:02:56;;;;;;;5.63;2.03;;;15.30;99.10;;;;;;4957152;29;20376;-85
2021/08/08 01:05:30;;;;;;;5.70;2.22;;;15.20;99.10;;;;;;4957170;29;20051;-85
2021/08/08 01:08:03;;;;;;;6.37;2.30;;;15.40;99.20;;;;;;4974216;28;20497;-85
2021/08/08 01:10:29;;;;;;;8.50;2.30;;;15.30;98.90;;;;;;4976225;28;20349;-85
2021/08/08 01:12:56;;;;;;;6.20;2.45;;;15.40;98.90;;;;;;4976140;28;20162;-84
2021/08/08 01:15:27;;;;;;;7.68;2.38;;;15.40;98.90;;;;;;4976026;28;20545;-84
2021/08/08 01:18:01;;;;;;;10.07;2.90;;;15.40;98.30;;;;;;4976083;28;20475;-83
2021/08/08 01:20:31;;;;;;;7.75;2.70;;;15.30;98.60;;;;;;4977299;28;20031;-84
2021/08/08 01:23:01;;;;;;;6.10;2.35;;;15.20;98.80;;;;;;4976191;28;20031;-84
2021/08/08 01:25:30;;;;;;;7.15;2.63;;;15.40;99.10;;;;;;4975960;28;20034;-84
2021/08/08 01:28:03;;;;;;;7.72;2.47;;;15.40;99.00;;;;;;4975687;28;20448;-84
2021/08/08 01:30:30;;;;;;;5.97;2.63;;;15.30;98.80;;;;;;4975550;28;20030;-84
2021/08/08 01:33:14;;;;;;;5.97;2.45;;;15.10;99.90;;;;;;4978884;28;20058;-84
2021/08/08 01:35:42;;;;;;;7.35;2.55;;;15.20;99.90;;;;;;4953786;29;20497;-84
2021/08/08 01:38:09;;;;;;;7.95;2.88;;;15.20;99.10;;;;;;4938403;29;20461;-85
2021/08/08 01:40:42;;;;;;;6.22;2.88;;;15.20;99.30;;;;;;4938510;29;20024;-84
2021/08/08 01:43:14;;;;;;;10.07;2.80;;;15.10;99.50;;;;;;4938235;29;20491;-84
2021/08/08 01:45:42;;;;;;;7.88;2.78;;;15.10;99.50;;;;;;4937987;29;20020;-84
2021/08/08 01:48:12;;;;;;;6.97;2.83;;;15.00;99.30;;;;;;4938500;29;20062;-84
2021/08/08 01:50:42;;;;;;;7.80;3.58;;;14.90;99.10;;;;;;4938433;29;20052;-84
2021/08/08 01:53:11;;;;;;;5.43;2.40;;;14.90;99.40;;;;;;4953108;29;20114;-84
2021/08/08 01:55:37;;;;;;;9.82;2.90;;;14.80;99.90;;;;;;4938859;29;20495;-84
2021/08/08 01:58:06;;;;;;;7.43;2.58;;;14.90;99.90;;;;;;4952907;29;20031;-84
2021/08/08 02:00:32;;;;;;;9.32;2.65;;;14.80;99.90;;;;;;4952928;29;20032;-83
2021/08/08 02:03:00;;;;;;;6.05;2.50;;;14.80;99.90;;;;;;4938070;29;20074;-83
2021/08/08 02:05:30;;;;;;;8.50;2.70;;;14.70;99.90;;;;;;4936836;29;20082;-83
2021/08/08 02:07:59;;;;;;;6.65;2.70;;;14.70;99.90;;;;;;4939300;28;20027;-85
2021/08/08 02:10:25;;;;;;;6.95;2.67;;;14.70;99.90;;;;;;4977168;28;20047;-84
2021/08/08 02:12:52;;;;;;;12.10;3.25;;;14.70;99.90;;;;;;4976427;28;20384;-84
2021/08/08 02:15:18;;;;;;;7.85;3.00;;;14.70;99.90;;;;;;4959222;28;20034;-84
2021/08/08 02:17:44;;;;;;;9.30;3.20;;;14.70;99.90;;;;;;4974898;28;20503;-84
2021/08/08 02:20:15;;;;;;;11.07;3.20;;;14.70;99.90;;;;;;4974717;28;20031;-84
2021/08/08 02:22:42;;;;;;;8.80;3.05;;;14.60;99.90;;;;;;4974707;28;20365;-84
2021/08/08 02:25:09;;;;;;;9.50;3.13;;;14.70;99.90;;;;;;4974637;28;20029;-84
2021/08/08 02:27:35;;;;;;;11.13;2.67;;;14.70;99.90;;;;;;4977459;28;20088;-84
2021/08/08 02:30:08;;;;;;;7.63;2.95;;;14.80;99.90;;;;;;4995505;28;20084;-84
2021/08/08 02:32:34;;;;;;;6.50;2.80;;;14.80;99.90;;;;;;4977997;28;20028;-84
2021/08/08 02:35:04;;;;;;;8.02;2.53;;;14.80;99.90;;;;;;4977886;28;20026;-84
2021/08/08 02:37:30;;;;;;;8.88;2.92;;;14.80;99.90;;;;;;4977355;28;20035;-84
2021/08/08 02:39:57;;;;;;;6.80;2.97;;;14.80;99.90;;;;;;4978155;28;20030;-84
2021/08/08 02:42:23;;;;;;;7.82;3.25;;;14.80;99.90;;;;;;4995064;28;20113;-84
2021/08/08 02:44:50;;;;;;;12.90;3.20;;;14.90;99.90;;;;;;4977569;28;20022;-84
2021/08/08 02:47:16;;;;;;;6.72;2.58;;;14.90;99.90;;;;;;4977627;28;20057;-85
2021/08/08 02:49:42;;;;;;;7.80;3.00;;;14.90;99.90;;;;;;4978149;28;20030;-85
2021/08/08 02:52:09;;;;;;;7.32;2.70;;;14.90;99.90;;;;;;4998816;28;20026;-85
2021/08/08 02:54:35;;;;;;;4.68;2.20;;;14.90;99.90;;;;;;4983220;28;20045;-85
2021/08/08 02:57:02;;;;;;;5.85;2.33;;;15.00;99.90;;;;;;5018039;28;20038;-85
2021/08/08 02:59:29;;;;;;;5.82;2.75;;;15.00;99.90;;;;;;4980374;28;20605;-84
2021/08/08 03:01:58;;;;;;;7.07;2.83;;;14.80;99.90;;;;;;4977536;28;20474;-84
2021/08/08 03:04:37;;;;;;;;;;;;;;;;;;;;;
2021/08/08 03:07:09;;;;;;;7.63;2.70;;;15.10;99.90;;;;;;4994487;28;20026;-83
2021/08/08 03:09:36;;;;;;;8.02;2.70;;;15.10;99.90;;;;;;4981932;28;20471;-83
2021/08/08 03:12:04;;;;;;;7.60;2.55;;;15.00;99.90;;;;;;4977049;28;20487;-84
2021/08/08 03:14:34;;;;;;;6.40;2.47;;;15.00;99.90;;;;;;4977058;28;20497;-84
2021/08/08 03:17:03;;;;;;;5.28;2.22;;;15.20;99.90;;;;;;4961435;28;20045;-84
2021/08/08 03:19:30;;;;;;;7.65;2.55;;;15.30;99.90;;;;;;4977145;28;20097;-84
2021/08/08 03:21:57;;;;;;;5.28;2.40;;;15.40;99.90;;;;;;4978136;28;20122;-84
2021/08/08 03:24:23;;;;;;;7.88;2.70;;;15.40;99.90;;;;;;4977582;28;20077;-84
2021/08/08 03:26:52;;;;;;;8.10;2.90;;;15.40;99.90;;;;;;4977014;28;20479;-84
2021/08/08 03:29:19;;;;;;;9.00;2.67;;;15.40;99.90;;;;;;4973632;28;20078;-85
2021/08/08 03:31:45;;;;;;;8.63;3.03;;;15.40;99.90;;;;;;4974603;28;20078;-83
2021/08/08 03:34:12;;;;;;;6.35;2.70;;;15.30;99.90;;;;;;4975041;28;20062;-85
2021/08/08 03:36:38;;;;;;;7.78;2.67;;;15.30;99.90;;;;;;4960960;28;20545;-85
2021/08/08 03:39:06;;;;;;;5.20;2.50;;;15.10;99.90;;;;;;4954654;29;20514;-85
2021/08/08 03:41:33;;;;;;;5.60;2.50;;;15.30;99.90;;;;;;4955364;29;20459;-85
2021/08/08 03:44:01;;;;;;;7.75;2.28;;;15.30;99.90;;;;;;4954142;29;20031;-85
2021/08/08 03:46:28;;;;;;;6.70;2.17;;;15.30;99.90;;;;;;4954981;28;20463;-85
2021/08/08 03:48:55;;;;;;;7.25;2.42;;;15.20;99.90;;;;;;4954649;29;20482;-84
2021/08/08 03:51:23;;;;;;;7.45;2.45;;;15.20;99.90;;;;;;4954393;29;20034;-84
2021/08/08 03:53:51;;;;;;;6.72;2.35;;;15.90;99.90;;;;;;4953997;29;20460;-83
2021/08/08 03:56:18;;;;;;;13.52;5.43;;;15.20;99.90;;;;;;4954042;29;20471;-84
2021/08/08 03:58:45;;;;;;;8.65;3.42;;;15.20;99.90;;;;;;4954273;29;20023;-84
2021/08/08 04:01:13;;;;;;;11.57;4.78;;;15.20;99.90;;;;;;4953829;29;20082;-84
2021/08/08 04:03:40;;;;;;;9.98;4.75;;;15.20;99.90;;;;;;4953952;29;20460;-84
2021/08/08 04:06:08;;;;;;;8.63;2.42;;;15.30;99.90;;;;;;4954199;29;20460;-84
2021/08/08 04:08:35;;;;;;;8.43;2.78;;;15.30;99.90;;;;;;4954080;29;20506;-84
2021/08/08 04:11:03;;;;;;;8.35;2.60;;;15.40;99.90;;;;;;4953615;29;20032;-84
2021/08/08 04:13:30;;;;;;;6.03;2.58;;;15.40;99.90;;;;;;4954011;29;20487;-84
2021/08/08 04:15:58;;;;;;;6.00;2.63;;;15.50;99.90;;;;;;4953652;29;20488;-85
2021/08/08 04:18:25;;;;;;;7.25;2.60;;;15.40;99.90;;;;;;4953889;29;20054;-85
2021/08/08 04:20:53;;;;;;;6.88;2.67;;;15.40;99.90;;;;;;4953983;28;20035;-84
2021/08/08 04:23:20;;;;;;;8.52;2.80;;;15.40;99.90;;;;;;4954337;29;20050;-84
2021/08/08 04:25:47;;;;;;;8.18;3.20;;;15.30;99.90;;;;;;4953967;29;20483;-84
2021/08/08 04:28:15;;;;;;;9.35;4.63;;;15.30;99.90;;;;;;4961748;28;20039;-84
2021/08/08 04:30:43;;;;;;;18.08;10.30;;;15.30;99.90;;;;;;4973507;28;20118;-84
2021/08/08 04:33:12;;;;;;;12.75;6.38;;;15.30;99.90;;;;;;4973207;28;20549;-84
2021/08/08 04:35:39;;;;;;;9.05;3.70;;;15.10;99.90;;;;;;4974566;28;20038;-84
2021/08/08 04:38:07;;;;;;;9.18;3.33;;;15.30;99.90;;;;;;4974048;28;20483;-84
2021/08/08 04:40:34;;;;;;;6.82;2.60;;;15.30;99.90;;;;;;4973109;28;20035;-84
2021/08/08 04:43:07;;;;;;;8.00;2.80;;;15.30;99.90;;;;;;4972781;28;20554;-84
2021/08/08 04:45:34;;;;;;;6.90;2.60;;;15.30;99.90;;;;;;4972951;28;20030;-84
2021/08/08 04:48:01;;;;;;;7.25;2.50;;;15.40;99.90;;;;;;4976395;28;20069;-84
2021/08/08 04:50:27;;;;;;;7.03;3.35;;;15.30;99.90;;;;;;4976433;28;20034;-84
2021/08/08 04:52:54;;;;;;;6.20;2.60;;;15.40;99.90;;;;;;4976686;28;20027;-84
2021/08/08 04:55:21;;;;;;;8.45;2.80;;;15.40;99.90;;;;;;4976265;28;20038;-84
2021/08/08 04:57:49;;;;;;;7.15;2.63;;;15.30;99.90;;;;;;4976300;28;20545;-84
2021/08/08 05:00:17;;;;;;;6.28;2.60;;;15.20;99.90;;;;;;4976560;28;20494;-84
2021/08/08 05:02:45;;;;;;;7.32;2.80;;;15.40;99.90;;;;;;4976559;28;20475;-84
2021/08/08 05:05:14;;;;;;;7.82;2.72;;;15.30;99.90;;;;;;4976460;28;20484;-84
2021/08/08 05:07:41;;;;;;;6.88;2.85;;;15.50;99.90;;;;;;4976466;28;20034;-84
2021/08/08 05:10:12;;;;;;;10.07;4.78;;;15.50;99.90;;;;;;4977583;28;20102;-84
2021/08/08 05:12:40;;;;;;;14.57;6.40;;;15.60;99.90;;;;;;4976211;28;20325;-84
2021/08/08 05:15:08;;;;;;;11.13;3.17;;;15.60;99.90;;;;;;4977598;28;20508;-84
2021/08/08 05:17:35;;;;;;;6.90;2.97;;;15.60;99.90;;;;;;4977157;28;20486;-84
2021/08/08 05:20:07;;;;;;;9.27;3.00;;;15.70;99.90;;;;;;4975920;28;20030;-84
2021/08/08 05:22:37;;;;;;;9.95;2.70;;;15.70;99.90;;;;;;4976123;28;20466;-84
2021/08/08 05:25:05;;;;;;;7.25;2.70;;;15.80;99.90;;;;;;4977269;28;20066;-84
2021/08/08 05:27:35;;;;;;;6.93;2.90;;;15.80;99.90;;;;;;4979133;28;20467;-84
2021/08/08 05:55:36;;;;;;;;;;;;;;;;;;;;;
2021/08/08 05:58:42;;;;;;;5.95;2.50;;;16.40;99.90;;;;;;4731501;30;20506;-82
2021/08/08 06:01:08;;;;;;;7.03;2.60;;;16.40;99.90;;;;;;4724960;30;20055;-84
2021/08/08 06:03:35;;;;;;;5.72;2.08;;;16.50;99.90;;;;;;4875432;29;20045;-84
2021/08/08 06:06:01;;;;;;;7.10;2.50;;;16.50;99.90;;;;;;4900919;28;20505;-84
2021/08/08 06:08:31;;;;;;;5.88;2.20;;;16.60;99.90;;;;;;4981745;28;20037;-84
2021/08/08 06:10:59;;;;;;;3.55;2.10;;;16.60;99.90;;;;;;4995376;28;20030;-84
2021/08/08 06:13:25;;;;;;;4.50;1.95;;;16.70;99.90;;;;;;4994164;28;20549;-84
2021/08/08 06:15:52;;;;;;;6.63;1.90;;;16.80;99.90;;;;;;4995346;28;20353;-83
2021/08/08 06:18:18;;;;;;;3.13;1.90;;;16.90;99.90;;;;;;4995644;28;20384;-82
2021/08/08 06:20:45;;;;;;;4.18;1.95;;;17.10;99.90;;;;;;4977924;28;20106;-82
2021/08/08 06:23:12;;;;;;;5.03;1.80;;;17.10;99.90;;;;;;4977983;28;20537;-84
2021/08/08 06:25:39;;;;;;;3.95;2.20;;;17.00;99.90;;;;;;4993788;28;20041;-83
2021/08/08 06:28:05;;;;;;;13.63;7.35;;;17.30;99.90;;;;;;4993803;28;20524;-84
2021/08/08 06:30:33;;;;;;;5.28;2.47;;;17.30;99.90;;;;;;4977687;28;20466;-84
2021/08/08 06:33:03;;;;;;;5.15;1.90;;;17.40;99.90;;;;;;4977972;28;20477;-84
2021/08/08 06:35:30;;;;;;;2.03;1.45;;;17.30;99.90;;;;;;4992950;28;20047;-84
2021/08/08 06:37:56;;;;;;;5.70;1.90;;;17.50;99.90;;;;;;4995530;28;20025;-88
2021/08/08 06:40:22;;;;;;;3.17;1.92;;;17.60;99.90;;;;;;4978322;28;20030;-89
2021/08/08 06:42:49;;;;;;;3.63;1.88;;;17.60;99.90;;;;;;4978607;28;20022;-87
2021/08/08 06:45:15;;;;;;;4.05;1.80;;;17.70;99.90;;;;;;4981926;28;20422;-93
2021/08/08 06:47:43;;;;;;;4.00;1.58;;;17.80;99.90;;;;;;4968282;28;20509;-93
2021/08/08 06:50:10;;;;;;;2.58;1.70;;;17.80;99.90;;;;;;4965409;28;20490;-88
2021/08/08 06:52:37;;;;;;;2.38;1.50;;;17.90;99.90;;;;;;4979143;28;20487;-86
2021/08/08 06:55:07;;;;;;;3.35;1.50;;;17.80;99.90;;;;;;4977767;28;20491;-85
2021/08/08 06:57:35;;;;;;;2.65;1.58;;;18.10;99.90;;;;;;4977948;28;20565;-84
2021/08/08 07:00:02;;;;;;;3.65;1.58;;;;;;;;;;4977083;28;20482;-85
2021/08/08 07:02:30;;;;;;;2.25;1.52;;;;;;;;;;4994544;28;20475;-86
2021/08/08 07:04:57;;;;;;;2.38;1.35;;;;;;;;;;4977234;28;20430;-84
2021/08/08 07:07:24;;;;;;;2.72;1.63;;;;;;;;;;4977167;28;20501;-84
2021/08/08 07:09:52;;;;;;;3.85;1.50;;;;;;;;;;4960954;28;20023;-86
2021/08/08 07:12:19;;;;;;;3.45;1.60;;;;;;;;;;4961019;28;20027;-85
2021/08/08 07:14:46;;;;;;;1.23;1.17;;;18.80;99.50;;;;;;4976970;28;20023;-92
2021/08/08 07:17:11;;;;;;;1.50;1.40;;;19.30;99.20;;;;;;4983701;28;20032;-89
2021/08/08 07:19:37;;;;;;;2.17;1.50;;;19.90;99.10;;;;;;4981590;28;20030;-89
2021/08/08 07:22:03;;;;;;;4.95;1.60;;;19.40;99.10;;;;;;5015027;28;20040;-90
2021/08/08 07:24:29;;;;;;;2.20;1.40;;;19.50;98.90;;;;;;4981499;28;20398;-89
2021/08/08 07:26:57;;;;;;;1.65;1.08;;;19.50;98.50;;;;;;4981394;28;20026;-89
2021/08/08 07:29:24;;;;;;;2.17;1.38;;;19.60;98.80;;;;;;4977849;28;20108;-89
2021/08/08 07:31:50;;;;;;;2.38;1.45;;;19.80;99.10;;;;;;4993737;28;20090;-90
2021/08/08 07:34:17;;;;;;;1.25;0.77;;;19.90;98.50;;;;;;4977671;28;20037;-89
2021/08/08 07:36:42;;;;;;;2.08;1.40;;;19.80;99.60;;;;;;4963828;28;20035;-89
2021/08/08 07:39:09;;;;;;;1.98;1.40;;;20.30;99.90;;;;;;4958106;28;20435;-87
2021/08/08 07:41:36;;;;;;;1.30;1.20;;;19.80;99.90;;;;;;4957900;28;20108;-87
2021/08/08 07:44:03;;;;;;;2.80;1.40;;;20.00;99.90;;;;;;4957722;28;20522;-87
2021/08/08 07:46:31;;;;;;;2.05;1.13;;;19.70;99.90;;;;;;4978375;28;20499;-86
2021/08/08 07:48:58;;;;;;;3.15;1.50;;;;;;;;;;5003655;28;20030;-86
2021/08/08 07:51:27;;;;;;;4.07;1.08;;;;;;;;;;5004998;28;20103;-86
2021/08/08 07:53:54;;;;;;;1.45;1.35;;;20.70;99.90;;;;;;5004340;28;20490;-85
2021/08/08 07:56:21;;;;;;;3.13;1.50;;;21.20;99.90;;;;;;4989982;28;20502;-87
2021/08/08 07:58:47;;;;;;;1.27;1.17;;;21.20;99.90;;;;;;4974662;28;20484;-87
2021/08/08 08:01:14;;;;;;;2.72;1.50;;;21.00;99.90;;;;;;4974341;28;20504;-88
2021/08/08 08:03:41;;;;;;;4.00;1.85;;;21.20;99.90;;;;;;4957734;28;20023;-88
2021/08/08 08:06:09;;;;;;;2.05;1.27;;;21.50;99.90;;;;;;4957976;28;20042;-88
2021/08/08 08:08:36;;;;;;;1.58;1.20;;;21.80;99.90;;;;;;4973598;28;20468;-88
2021/08/08 08:11:04;;;;;;;2.13;1.40;;;;;;;;;;4973334;28;20502;-90
2021/08/08 08:13:32;;;;;;;1.55;1.20;;;;;;;;;;4973992;28;20031;-89
2021/08/08 08:15:59;;;;;;;3.42;1.67;;;;;;;;;;4974152;28;20086;-90
2021/08/08 08:18:27;;;;;;;4.85;1.45;;;;;;;;;;4974120;28;20110;-91
2021/08/08 08:20:54;;;;;;;1.48;1.23;;;;;;;;;;4958237;28;20045;-90
2021/08/08 08:23:23;;;;;;;1.85;1.23;;;;;;;;;;4961874;28;20494;-90
2021/08/08 08:25:49;;;;;;;1.50;1.38;;;;;;;;;;4961646;28;20582;-90
2021/08/08 08:28:18;;;;;;;3.67;1.50;;;23.20;99.90;;;;;;4961194;28;20051;-88
2021/08/08 08:30:44;;;;;;;1.52;1.38;;;;;;;;;;4977175;28;20476;-88
2021/08/08 08:33:10;;;;;;;3.10;1.25;;;;;;;;;;4977038;28;20037;-87
2021/08/08 08:35:38;;;;;;;3.63;1.30;;;;;;;;;;4952752;29;20046;-88
2021/08/08 08:38:05;;;;;;;2.30;1.20;;;;;;;;;;4938564;29;20499;-87
2021/08/08 08:40:36;;;;;;;3.55;1.65;;;;;;;;;;4938293;29;20036;-85
2021/08/08 08:43:04;;;;;;;2.35;1.20;;;;;;;;;;4956818;28;20027;-86
2021/08/08 08:45:32;;;;;;;2.35;1.27;;;;;;;;;;4957090;28;20029;-86
2021/08/08 08:47:59;;;;;;;2.33;1.30;;;;;;;;;;4958550;28;20051;-85
2021/08/08 08:50:28;;;;;;;1.63;1.50;;;;;;;;;;4958102;28;20547;-85
2021/08/08 08:52:55;;;;;;;3.45;1.23;;;;;;;;;;4957274;28;20031;-92
2021/08/08 08:55:22;;;;;;;1.48;1.20;;;;;;;;;;4958302;28;20027;-84
2021/08/08 08:57:50;;;;;;;3.90;1.60;;;;;;;;;;4975320;28;20039;-85
2021/08/08 09:00:17;;;;;;;2.28;1.40;;;;;;;;;;4977943;28;20019;-88
2021/08/08 09:02:45;;;;;;;3.42;1.67;;;;;;;;;;4976212;28;20023;-81
2021/08/08 09:05:13;;;;;;;4.57;1.67;;;;;;;;;;4975971;28;20065;-83
2021/08/08 09:07:41;;;;;;;4.55;2.50;;;;;;;;;;4960487;28;20026;-83
2021/08/08 09:10:12;;;;;;;3.95;1.70;;;;;;;;;;4957519;28;20027;-84
2021/08/08 09:12:40;;;;;;;3.58;1.63;;;;;;;;;;4972412;28;20035;-82
2021/08/08 09:15:08;;;;;;;2.72;1.40;;;;;;;;;;4977235;28;20471;-84
2021/08/08 09:17:36;;;;;;;2.60;1.40;;;22.90;99.90;;;;;;4977349;28;20541;-89
2021/08/08 09:20:08;;;;;;;3.40;1.42;;;23.20;99.90;;;;;;4960814;28;20460;-89
2021/08/08 09:22:38;;;;;;;3.08;1.42;;;23.30;99.90;;;;;;4976277;28;20030;-89
2021/08/08 09:25:05;;;;;;;1.40;1.15;;;23.60;99.90;;;;;;4976051;28;20033;-89
2021/08/08 09:27:36;;;;;;;1.52;1.35;;;23.80;99.90;;;;;;4964901;28;20507;-89
2021/08/08 09:30:18;;;;;;;3.10;1.48;;;24.00;99.90;;;;;;4995929;28;20492;-89
2021/08/08 09:32:46;;;;;;;5.22;1.73;;;24.10;99.60;;;;;;4995499;28;20487;-91
2021/08/08 09:35:19;;;;;;;2.95;1.67;;;24.30;99.80;;;;;;4995980;28;20479;-90
2021/08/08 09:38:00;;;;;;;4.97;1.40;;;24.60;99.00;;;;;;4979657;28;20124;-89
2021/08/08 09:40:27;;;;;;;3.15;1.65;;;;;;;;;;4979551;28;20510;-90
2021/08/08 09:42:54;;;;;;;2.72;1.25;;;25.00;98.10;;;;;;4980153;28;20038;-89
2021/08/08 09:45:33;;;;;;;1.70;1.20;;;25.20;98.20;;;;;;4981692;28;20034;-89
2021/08/08 09:48:00;;;;;;;2.38;1.35;;;25.20;98.10;;;;;;4997631;28;20085;-90
2021/08/08 09:50:28;;;;;;;2.50;1.30;;;25.30;97.40;;;;;;4971678;28;20026;-90
2021/08/08 09:53:03;;;;;;;2.30;1.25;;;25.30;95.80;;;;;;5000213;28;20026;-89
2021/08/08 09:55:48;;;;;;;2.28;1.35;;;24.80;95.70;;;;;;4979707;28;20037;-88
2021/08/08 09:58:23;;;;;;;3.88;1.48;;;25.00;95.80;;;;;;4980559;28;20474;-87
2021/08/08 10:00:55;;;;;;;2.63;1.40;;;24.60;95.90;;;;;;4964119;28;20038;-88
2021/08/08 10:03:21;;;;;;;2.05;1.35;;;24.40;95.90;;;;;;4979465;28;20064;-87
2021/08/08 10:05:49;;;;;;;2.13;1.42;;;24.30;96.30;;;;;;4978729;28;20079;-87
2021/08/08 10:08:17;;;;;;;1.58;1.15;;;24.30;97.00;;;;;;4962643;28;20018;-89
2021/08/08 10:10:45;;;;;;;3.40;1.50;;;24.50;97.90;;;;;;5011433;28;20093;-88
2021/08/08 10:13:36;;;;;;;2.97;1.20;;;24.90;98.30;;;;;;4995179;28;20475;-86
2021/08/08 10:16:09;;;;;;;2.35;1.33;;;25.60;98.70;;;;;;4994223;28;20475;-87
2021/08/08 10:18:53;;;;;;;2.35;1.30;;;26.00;98.00;;;;;;4980817;28;20502;-90
2021/08/08 10:21:20;;;;;;;2.72;1.20;;;26.60;97.70;;;;;;4994631;28;20562;-86
2021/08/08 10:23:48;;;;;;;2.42;1.30;;;27.10;97.90;;;;;;4988158;28;20081;-88
2021/08/08 10:26:14;;;;;;;3.60;1.58;;;27.00;96.90;;;;;;5018689;28;20031;-87
2021/08/08 10:28:41;;;;;;;1.80;1.27;;;27.00;96.80;;;;;;5001286;28;20062;-86
2021/08/08 10:31:09;;;;;;;2.47;1.23;;;26.90;96.30;;;;;;4981849;28;20022;-86
2021/08/08 10:33:46;;;;;;;3.20;1.38;;;26.80;96.20;;;;;;4994094;28;20122;-85
2021/08/08 10:36:17;;;;;;;4.10;1.35;;;26.90;96.80;;;;;;4995157;28;20499;-86
2021/08/08 10:38:48;;;;;;;3.28;1.27;;;;;;;;;;4977830;28;20113;-86
2021/08/08 10:41:15;;;;;;;2.50;1.33;;;;;;;;;;4973307;28;20073;-86
2021/08/08 10:43:44;;;;;;;2.20;1.10;;;28.50;97.20;;;;;;4957983;28;20030;-86
2021/08/08 10:46:12;;;;;;;1.38;1.27;;;;;;;;;;4958129;28;20019;-86
2021/08/08 10:48:41;;;;;;;2.90;1.75;;;28.70;96.60;;;;;;4975564;28;20514;-87
2021/08/08 10:51:28;;;;;;;3.22;1.98;;;28.80;95.70;;;;;;4958224;28;20570;-86
2021/08/08 10:54:05;;;;;;;1.33;1.10;;;29.10;96.10;;;;;;4959784;28;20030;-86
2021/08/08 10:56:45;;;;;;;2.72;1.38;;;;;;;;;;4982102;28;20501;-87
2021/08/08 10:59:16;;;;;;;2.15;1.25;;;;;;;;;;4993901;28;20080;-86
2021/08/08 11:01:44;;;;;;;4.93;1.80;;;;;;;;;;4995002;28;20022;-86
2021/08/08 11:04:11;;;;;;;2.03;1.10;;;;;;;;;;4993530;28;20387;-86
2021/08/08 11:06:38;;;;;;;1.40;1.30;;;;;;;;;;4977525;28;20427;-86
2021/08/08 11:09:05;;;;;;;3.28;1.20;;;;;;;;;;4986559;28;20029;-86
2021/08/08 11:11:34;;;;;;;2.25;1.13;;;;;;;;;;4994512;28;20484;-86
2021/08/08 11:14:09;;;;;;;3.15;1.33;;;;;;;;;;4977178;28;20438;-86
2021/08/08 11:16:36;;;;;;;3.05;1.38;;;;;;;;;;4995058;28;20026;-86
2021/08/08 11:19:05;;;;;;;2.08;1.50;;;;;;;;;;4976898;28;20501;-86
2021/08/08 11:21:32;;;;;;;2.75;1.17;;;;;;;;;;4976354;28;20487;-86
2021/08/08 11:24:03;;;;;;;3.40;1.30;;;;;;;;;;4961655;28;20491;-86
2021/08/08 11:26:31;;;;;;;3.00;1.25;;;;;;;;;;4994413;28;20586;-86
2021/08/08 11:29:02;;;;;;;1.90;1.25;;;;;;;;;;4994713;28;20126;-86
2021/08/08 11:31:30;;;;;;;1.52;1.10;;;;;;;;;;4995544;28;20214;-86
2021/08/08 11:34:00;;;;;;;1.27;1.10;;;;;;;;;;4977252;28;20030;-86
2021/08/08 11:36:29;;;;;;;2.40;1.20;;;;;;;;;;4977094;28;20096;-87
2021/08/08 11:38:57;;;;;;;3.40;1.75;;;;;;;;;;4994836;28;20029;-84
2021/08/08 11:41:32;;;;;;;1.05;0.98;;;34.50;86.40;;;;;;4977715;28;20033;-86
2021/08/08 11:44:08;;;;;;;1.92;1.40;;;;;;;;;;4992929;28;20060;-86
2021/08/08 11:46:36;;;;;;;2.53;1.30;;;34.90;80.20;;;;;;5004352;28;20029;-86
2021/08/08 11:49:17;;;;;;;1.48;1.13;;;35.80;78.00;;;;;;4996620;28;20109;-82
2021/08/08 11:51:55;;;;;;;1.67;1.10;;;36.10;67.20;;;;;;4980266;28;20027;-91
2021/08/08 11:54:25;;;;;;;3.80;1.23;;;36.40;68.40;;;;;;4994747;28;20508;-87
2021/08/08 11:56:52;;;;;;;2.80;1.10;;;36.80;68.30;;;;;;4979503;28;20477;-85
2021/08/08 11:59:30;;;;;;;1.65;1.05;;;37.50;67.20;;;;;;4998026;28;20030;-90
2021/08/08 12:02:08;;;;;;;2.38;1.25;;;37.20;63.40;;;;;;4998760;28;20471;-89
2021/08/08 12:04:37;;;;;;;2.45;1.20;;;36.30;64.20;;;;;;4980892;28;20463;-86
2021/08/08 12:07:07;;;;;;;2.20;1.15;;;35.90;64.80;;;;;;4980626;28;20045;-87
2021/08/08 12:09:35;;;;;;;1.85;1.15;;;35.40;63.70;;;;;;4999185;28;20558;-87
2021/08/08 12:12:02;;;;;;;2.42;1.10;;;34.90;63.70;;;;;;4998686;28;20019;-86
2021/08/08 12:14:35;;;;;;;3.55;1.30;;;34.10;64.00;;;;;;4996838;28;20031;-86
2021/08/08 12:17:06;;;;;;;2.42;1.02;;;;;;;;;;4996577;28;20126;-84
2021/08/08 12:19:34;;;;;;;6.20;1.20;;;;;;;;;;4996951;28;20561;-87
2021/08/08 12:22:21;;;;;;;1.35;1.15;;;32.50;47.10;;;;;;4996832;28;20467;-85
2021/08/08 12:25:11;;;;;;;3.35;1.40;;;32.60;48.50;;;;;;4986426;28;20038;-86
2021/08/08 12:27:40;;;;;;;2.50;1.33;;;33.00;48.90;;;;;;4997202;28;20049;-84
2021/08/08 12:30:12;;;;;;;3.35;1.50;;;33.20;48.30;;;;;;4998008;28;20038;-86
2021/08/08 12:32:41;;;;;;;1.52;1.25;;;34.10;48.60;;;;;;4998173;28;20474;-85
2021/08/08 12:35:11;;;;;;;1.40;1.00;;;35.60;49.80;;;;;;4980833;28;20467;-86
2021/08/08 12:37:38;;;;;;;1.27;0.90;;;37.00;44.90;;;;;;4980115;28;20070;-85
2021/08/08 12:40:14;;;;;;;2.55;1.13;;;36.90;42.60;;;;;;4980977;28;20023;-85
2021/08/08 12:42:42;;;;;;;1.38;1.00;;;37.00;42.20;;;;;;5003219;28;20081;-85
2021/08/08 12:45:12;;;;;;;2.67;1.23;;;36.70;42.50;;;;;;4992615;28;20026;-85
2021/08/08 12:47:41;;;;;;;2.03;1.15;;;36.70;41.90;;;;;;4991277;28;20512;-85
2021/08/08 12:50:21;;;;;;;2.35;1.08;;;36.90;44.00;;;;;;4985144;28;20030;-85
2021/08/08 12:52:52;;;;;;;2.08;1.23;;;37.80;43.20;;;;;;4997772;28;20045;-86
2021/08/08 12:55:20;;;;;;;0.95;0.80;;;38.80;45.90;;;;;;4981088;28;20113;-88
2021/08/08 12:57:48;;;;;;;0.90;0.90;;;39.70;38.60;;;;;;4998272;28;20037;-88
2021/08/08 13:00:16;;;;;;;2.47;1.45;;;38.00;32.10;;;;;;4997348;28;20027;-88
2021/08/08 13:02:54;;;;;;;1.10;1.00;;;37.30;33.00;;;;;;4997525;28;20026;-88
2021/08/08 13:05:21;;;;;;;2.25;1.15;;;36.80;33.70;;;;;;4964264;28;20023;-88
2021/08/08 13:07:48;;;;;;;1.58;0.90;;;36.90;35.00;;;;;;4979966;28;20054;-89
2021/08/08 13:10:16;;;;;;;3.42;0.88;;;35.20;32.80;;;;;;5003581;28;20022;-88
2021/08/08 13:12:44;;;;;;;0.80;0.80;;;34.40;34.00;;;;;;5022503;28;20068;-92
2021/08/08 13:15:12;;;;;;;1.42;0.90;;;34.00;34.80;;;;;;5004450;28;20068;-92
2021/08/08 13:17:39;;;;;;;2.10;1.20;;;34.30;34.70;;;;;;5000946;28;20088;-89
2021/08/08 13:20:11;;;;;;;1.35;1.25;;;32.80;35.20;;;;;;4999552;28;20030;-89
2021/08/08 13:22:41;;;;;;;2.20;1.13;;;33.70;35.40;;;;;;4999479;28;20490;-89
2021/08/08 13:25:09;;;;;;;2.20;1.17;;;32.00;34.20;;;;;;4987332;28;20463;-91
2021/08/08 13:27:37;;;;;;;3.13;1.23;;;31.70;35.40;;;;;;4980113;28;20053;-91
2021/08/08 13:30:06;;;;;;;1.27;1.17;;;31.30;34.80;;;;;;4980085;28;20038;-89
2021/08/08 13:32:31;;;;;;;1.95;1.10;;;31.00;34.00;;;;;;4998082;28;20026;-91
2021/08/08 13:34:57;;;;;;;4.80;1.27;;;29.30;36.50;;;;;;4980333;28;20037;-90
2021/08/08 13:37:23;;;;;;;1.15;1.13;;;31.40;37.90;;;;;;4980113;28;20045;-89
2021/08/08 13:39:51;;;;;;;2.45;1.35;;;31.40;36.70;;;;;;5006175;28;20026;-84
2021/08/08 13:42:17;;;;;;;1.77;1.27;;;29.80;36.50;;;;;;4996950;28;20034;-83